sensor_id;sensor_type;location;lat;lon;timestamp;temperature;humidity
7445;DHT22;3764;48.126;11.594;2023-07-28T00:00:55;18.30;99.90
7445;DHT22;3764;48.126;11.594;2023-07-28T00:03:22;18.30;99.90
7445;DHT22;3764;48.126;11.594;2023-07-28T00:05:49;18.30;99.90
7445;DHT22;3764;48.126;11.594;2023-07-28T00:08:16;18.30;99.90
7445;DHT22;3764;48.126;11.594;2023-07-28T00:10:43;18.40;99.90
7445;DHT22;3764;48.126;11.594;2023-07-28T00:13:10;18.30;99.90
7445;DHT22;3764;48.126;11.594;2023-07-28T00:15:37;18.30;99.90
7445;DHT22;3764;48.126;11.594;2023-07-28T00:18:06;18.30;99.90
7445;DHT22;3764;48.126;11.594;2023-07-28T00:20:33;18.30;99.90
7445;DHT22;3764;48.126;11.594;2023-07-28T00:23:00;18.30;99.90
7445;DHT22;3764;48.126;11.594;2023-07-28T00:25:27;18.30;99.90
7445;DHT22;3764;48.126;11.594;2023-07-28T00:27:55;18.30;99.90
7445;DHT22;3764;48.126;11.594;2023-07-28T00:30:22;18.30;99.90
7445;DHT22;3764;48.126;11.594;2023-07-28T00:32:49;18.20;99.90
7445;DHT22;3764;48.126;11.594;2023-07-28T00:35:17;18.20;99.90
7445;DHT22;3764;48.126;11.594;2023-07-28T00:37:44;18.20;99.90
7445;DHT22;3764;48.126;11.594;2023-07-28T00:40:12;18.20;99.90
7445;DHT22;3764;48.126;11.594;2023-07-28T00:42:39;18.20;99.90
7445;DHT22;3764;48.126;11.594;2023-07-28T00:45:07;18.20;99.90
7445;DHT22;3764;48.126;11.594;2023-07-28T00:47:35;18.20;99.90
7445;DHT22;3764;48.126;11.594;2023-07-28T00:50:02;18.20;99.90
7445;DHT22;3764;48.126;11.594;2023-07-28T00:52:32;18.20;99.90
7445;DHT22;3764;48.126;11.594;2023-07-28T00:54:59;18.00;99.90
7445;DHT22;3764;48.126;11.594;2023-07-28T00:57:26;17.90;99.90
7445;DHT22;3764;48.126;11.594;2023-07-28T00:59:53;17.70;99.90
7445;DHT22;3764;48.126;11.594;2023-07-28T01:02:21;17.50;99.90
7445;DHT22;3764;48.126;11.594;2023-07-28T01:04:49;17.40;99.90
7445;DHT22;3764;48.126;11.594;2023-07-28T01:07:20;17.20;99.90
7445;DHT22;3764;48.126;11.594;2023-07-28T01:09:56;17.10;99.90
7445;DHT22;3764;48.126;11.594;2023-07-28T01:12:24;17.00;99.90
7445;DHT22;3764;48.126;11.594;2023-07-28T01:14:51;16.90;99.90
7445;DHT22;3764;48.126;11.594;2023-07-28T01:17:18;16.90;99.90
7445;DHT22;3764;48.126;11.594;2023-07-28T01:19:49;16.80;99.90
7445;DHT22;3764;48.126;11.594;2023-07-28T01:22:38;16.80;99.90
7445;DHT22;3764;48.126;11.594;2023-07-28T01:25:17;16.80;99.90
7445;DHT22;3764;48.126;11.594;2023-07-28T01:27:47;16.80;99.90
7445;DHT22;3764;48.126;11.594;2023-07-28T01:30:15;16.70;99.90
7445;DHT22;3764;48.126;11.594;2023-07-28T01:32:43;16.70;99.90
7445;DHT22;3764;48.126;11.594;2023-07-28T01:35:10;16.70;99.90
7445;DHT22;3764;48.126;11.594;2023-07-28T01:37:37;16.70;99.90
7445;DHT22;3764;48.126;11.594;2023-07-28T01:40:05;16.70;99.90
7445;DHT22;3764;48.126;11.594;2023-07-28T01:42:32;16.70;99.90
7445;DHT22;3764;48.126;11.594;2023-07-28T01:45:01;16.80;99.90
7445;DHT22;3764;48.126;11.594;2023-07-28T01:47:28;16.80;99.90
7445;DHT22;3764;48.126;11.594;2023-07-28T01:49:55;16.80;99.90
7445;DHT22;3764;48.126;11.594;2023-07-28T01:52:22;16.80;99.90
7445;DHT22;3764;48.126;11.594;2023-07-28T01:54:49;16.70;99.90
7445;DHT22;3764;48.126;11.594;2023-07-28T01:57:17;16.70;99.90
7445;DHT22;3764;48.126;11.594;2023-07-28T01:59:44;16.70;99.90
7445;DHT22;3764;48.126;11.594;2023-07-28T02:02:12;16.70;99.90
7445;DHT22;3764;48.126;11.594;2023-07-28T02:04:39;16.70;99.90
7445;DHT22;3764;48.126;11.594;2023-07-28T02:07:06;16.70;99.90
7445;DHT22;3764;48.126;11.594;2023-07-28T02:09:33;16.70;99.90
7445;DHT22;3764;48.126;11.594;2023-07-28T02:12:00;16.60;99.90
7445;DHT22;3764;48.126;11.594;2023-07-28T02:14:28;16.60;99.90
7445;DHT22;3764;48.126;11.594;2023-07-28T02:16:55;16.60;99.90
7445;DHT22;3764;48.126;11.594;2023-07-28T02:19:24;16.60;99.90
7445;DHT22;3764;48.126;11.594;2023-07-28T02:21:51;16.60;99.90
7445;DHT22;3764;48.126;11.594;2023-07-28T02:24:18;16.50;99.90
7445;DHT22;3764;48.126;11.594;2023-07-28T02:26:45;16.50;99.90
7445;DHT22;3764;48.126;11.594;2023-07-28T02:29:12;16.50;99.90
7445;DHT22;3764;48.126;11.594;2023-07-28T02:31:39;16.50;99.90
7445;DHT22;3764;48.126;11.594;2023-07-28T02:34:06;16.50;99.90
7445;DHT22;3764;48.126;11.594;2023-07-28T02:36:35;16.40;99.90
7445;DHT22;3764;48.126;11.594;2023-07-28T02:39:02;16.40;99.90
7445;DHT22;3764;48.126;11.594;2023-07-28T02:41:29;16.40;99.90
7445;DHT22;3764;48.126;11.594;2023-07-28T02:43:56;16.40;99.90
7445;DHT22;3764;48.126;11.594;2023-07-28T02:46:23;16.40;99.90
7445;DHT22;3764;48.126;11.594;2023-07-28T02:48:51;16.40;99.90
7445;DHT22;3764;48.126;11.594;2023-07-28T02:51:18;16.30;99.90
7445;DHT22;3764;48.126;11.594;2023-07-28T02:53:47;16.30;99.90
7445;DHT22;3764;48.126;11.594;2023-07-28T02:56:14;16.30;99.90
7445;DHT22;3764;48.126;11.594;2023-07-28T02:58:41;16.30;99.90
7445;DHT22;3764;48.126;11.594;2023-07-28T03:01:08;16.30;99.90
7445;DHT22;3764;48.126;11.594;2023-07-28T03:03:35;16.30;99.90
7445;DHT22;3764;48.126;11.594;2023-07-28T03:06:02;16.20;99.90
7445;DHT22;3764;48.126;11.594;2023-07-28T03:08:29;16.20;99.90
7445;DHT22;3764;48.126;11.594;2023-07-28T03:10:58;16.20;99.90
7445;DHT22;3764;48.126;11.594;2023-07-28T03:13:28;16.20;99.90
7445;DHT22;3764;48.126;11.594;2023-07-28T03:15:55;16.10;99.90
7445;DHT22;3764;48.126;11.594;2023-07-28T03:18:22;16.10;99.90
7445;DHT22;3764;48.126;11.594;2023-07-28T03:20:49;16.10;99.90
7445;DHT22;3764;48.126;11.594;2023-07-28T03:23:16;16.10;99.90
7445;DHT22;3764;48.126;11.594;2023-07-28T03:25:43;16.00;99.90
7445;DHT22;3764;48.126;11.594;2023-07-28T03:28:12;16.00;99.90
7445;DHT22;3764;48.126;11.594;2023-07-28T03:30:39;16.00;99.90
7445;DHT22;3764;48.126;11.594;2023-07-28T03:33:06;16.00;99.90
7445;DHT22;3764;48.126;11.594;2023-07-28T03:35:33;16.00;99.90
7445;DHT22;3764;48.126;11.594;2023-07-28T03:38:00;16.00;99.90
7445;DHT22;3764;48.126;11.594;2023-07-28T03:40:28;16.00;99.90
7445;DHT22;3764;48.126;11.594;2023-07-28T03:45:26;16.00;99.90
7445;DHT22;3764;48.126;11.594;2023-07-28T03:47:53;16.10;99.90
7445;DHT22;3764;48.126;11.594;2023-07-28T03:50:21;16.10;99.90
7445;DHT22;3764;48.126;11.594;2023-07-28T03:52:50;16.10;99.90
7445;DHT22;3764;48.126;11.594;2023-07-28T03:55:17;16.10;99.90
7445;DHT22;3764;48.126;11.594;2023-07-28T03:57:44;16.10;99.90
7445;DHT22;3764;48.126;11.594;2023-07-28T04:00:12;16.10;99.90
7445;DHT22;3764;48.126;11.594;2023-07-28T04:02:41;16.20;99.90
7445;DHT22;3764;48.126;11.594;2023-07-28T04:05:08;16.20;99.90
7445;DHT22;3764;48.126;11.594;2023-07-28T04:07:35;16.20;99.90
7445;DHT22;3764;48.126;11.594;2023-07-28T04:10:03;16.20;99.90
7445;DHT22;3764;48.126;11.594;2023-07-28T04:12:30;16.30;99.90
7445;DHT22;3764;48.126;11.594;2023-07-28T04:14:57;16.30;99.90
7445;DHT22;3764;48.126;11.594;2023-07-28T04:17:25;16.30;99.90
7445;DHT22;3764;48.126;11.594;2023-07-28T04:19:53;16.30;99.90
7445;DHT22;3764;48.126;11.594;2023-07-28T04:22:20;16.30;99.90
7445;DHT22;3764;48.126;11.594;2023-07-28T04:24:48;16.40;99.90
7445;DHT22;3764;48.126;11.594;2023-07-28T04:27:15;16.40;99.90
7445;DHT22;3764;48.126;11.594;2023-07-28T04:29:42;16.40;99.90
7445;DHT22;3764;48.126;11.594;2023-07-28T04:32:09;16.40;99.90
7445;DHT22;3764;48.126;11.594;2023-07-28T04:34:36;16.50;99.90
7445;DHT22;3764;48.126;11.594;2023-07-28T04:37:05;16.50;99.90
7445;DHT22;3764;48.126;11.594;2023-07-28T04:39:32;16.50;99.90
7445;DHT22;3764;48.126;11.594;2023-07-28T04:41:59;16.60;99.90
7445;DHT22;3764;48.126;11.594;2023-07-28T04:44:27;16.60;99.90
7445;DHT22;3764;48.126;11.594;2023-07-28T04:46:54;16.60;99.90
7445;DHT22;3764;48.126;11.594;2023-07-28T04:49:21;16.60;99.90
7445;DHT22;3764;48.126;11.594;2023-07-28T04:51:48;16.70;99.90
7445;DHT22;3764;48.126;11.594;2023-07-28T04:54:16;16.70;99.90
7445;DHT22;3764;48.126;11.594;2023-07-28T04:56:43;16.80;99.90
7445;DHT22;3764;48.126;11.594;2023-07-28T04:59:11;16.80;99.90
7445;DHT22;3764;48.126;11.594;2023-07-28T05:01:38;16.80;99.90
7445;DHT22;3764;48.126;11.594;2023-07-28T05:04:05;16.80;99.90
7445;DHT22;3764;48.126;11.594;2023-07-28T05:06:32;16.80;99.90
7445;DHT22;3764;48.126;11.594;2023-07-28T05:09:00;16.90;99.90
7445;DHT22;3764;48.126;11.594;2023-07-28T05:11:28;16.90;99.90
7445;DHT22;3764;48.126;11.594;2023-07-28T05:13:55;16.90;99.90
7445;DHT22;3764;48.126;11.594;2023-07-28T05:16:22;17.00;99.90
7445;DHT22;3764;48.126;11.594;2023-07-28T05:18:49;17.00;99.90
7445;DHT22;3764;48.126;11.594;2023-07-28T05:21:16;17.00;99.90
7445;DHT22;3764;48.126;11.594;2023-07-28T05:23:43;17.10;99.90
7445;DHT22;3764;48.126;11.594;2023-07-28T05:26:10;17.10;99.90
7445;DHT22;3764;48.126;11.594;2023-07-28T05:28:39;17.20;99.90
7445;DHT22;3764;48.126;11.594;2023-07-28T05:31:06;17.20;99.90
7445;DHT22;3764;48.126;11.594;2023-07-28T05:33:33;17.20;99.90
7445;DHT22;3764;48.126;11.594;2023-07-28T05:36:01;17.20;99.90
7445;DHT22;3764;48.126;11.594;2023-07-28T05:38:28;17.20;99.90
7445;DHT22;3764;48.126;11.594;2023-07-28T05:40:57;17.20;99.90
7445;DHT22;3764;48.126;11.594;2023-07-28T05:43:24;17.30;99.90
7445;DHT22;3764;48.126;11.594;2023-07-28T05:45:52;17.30;99.90
7445;DHT22;3764;48.126;11.594;2023-07-28T05:48:19;17.30;99.90
7445;DHT22;3764;48.126;11.594;2023-07-28T05:50:46;17.30;99.90
7445;DHT22;3764;48.126;11.594;2023-07-28T05:53:14;17.30;99.90
7445;DHT22;3764;48.126;11.594;2023-07-28T05:55:41;17.30;99.90
7445;DHT22;3764;48.126;11.594;2023-07-28T05:58:08;17.40;99.90
7445;DHT22;3764;48.126;11.594;2023-07-28T06:00:35;17.40;99.90
7445;DHT22;3764;48.126;11.594;2023-07-28T06:03:06;17.40;99.90
7445;DHT22;3764;48.126;11.594;2023-07-28T06:05:33;17.50;99.90
7445;DHT22;3764;48.126;11.594;2023-07-28T06:08:00;17.50;99.90
7445;DHT22;3764;48.126;11.594;2023-07-28T06:10:27;17.50;99.90
7445;DHT22;3764;48.126;11.594;2023-07-28T06:12:55;17.50;99.90
7445;DHT22;3764;48.126;11.594;2023-07-28T06:15:22;17.60;99.90
7445;DHT22;3764;48.126;11.594;2023-07-28T06:17:49;17.60;99.90
7445;DHT22;3764;48.126;11.594;2023-07-28T06:20:18;17.60;99.90
7445;DHT22;3764;48.126;11.594;2023-07-28T06:22:45;17.50;99.90
7445;DHT22;3764;48.126;11.594;2023-07-28T06:25:12;17.60;99.90
7445;DHT22;3764;48.126;11.594;2023-07-28T06:27:39;17.50;99.90
7445;DHT22;3764;48.126;11.594;2023-07-28T06:30:07;17.60;99.90
7445;DHT22;3764;48.126;11.594;2023-07-28T06:32:34;17.60;99.90
7445;DHT22;3764;48.126;11.594;2023-07-28T06:35:01;17.60;99.90
7445;DHT22;3764;48.126;11.594;2023-07-28T06:37:30;17.60;99.90
7445;DHT22;3764;48.126;11.594;2023-07-28T06:39:57;17.70;99.90
7445;DHT22;3764;48.126;11.594;2023-07-28T06:42:25;17.70;99.90
7445;DHT22;3764;48.126;11.594;2023-07-28T06:44:52;17.70;99.90
7445;DHT22;3764;48.126;11.594;2023-07-28T06:47:19;17.80;99.90
7445;DHT22;3764;48.126;11.594;2023-07-28T06:49:46;17.80;99.90
7445;DHT22;3764;48.126;11.594;2023-07-28T06:52:13;17.90;99.90
7445;DHT22;3764;48.126;11.594;2023-07-28T06:54:41;18.00;99.90
7445;DHT22;3764;48.126;11.594;2023-07-28T06:57:09;18.00;99.90
7445;DHT22;3764;48.126;11.594;2023-07-28T06:59:36;18.10;99.90
7445;DHT22;3764;48.126;11.594;2023-07-28T07:02:03;18.20;99.90
7445;DHT22;3764;48.126;11.594;2023-07-28T07:04:31;18.20;99.90
7445;DHT22;3764;48.126;11.594;2023-07-28T07:06:58;18.20;99.90
7445;DHT22;3764;48.126;11.594;2023-07-28T07:09:25;18.30;99.90
7445;DHT22;3764;48.126;11.594;2023-07-28T07:11:54;18.40;99.90
7445;DHT22;3764;48.126;11.594;2023-07-28T07:14:21;18.40;99.90
7445;DHT22;3764;48.126;11.594;2023-07-28T07:16:49;18.50;99.90
7445;DHT22;3764;48.126;11.594;2023-07-28T07:19:16;18.50;99.90
7445;DHT22;3764;48.126;11.594;2023-07-28T07:21:43;18.60;99.90
7445;DHT22;3764;48.126;11.594;2023-07-28T07:24:11;18.70;99.90
7445;DHT22;3764;48.126;11.594;2023-07-28T07:26:39;18.70;99.90
7445;DHT22;3764;48.126;11.594;2023-07-28T07:29:08;18.70;99.90
7445;DHT22;3764;48.126;11.594;2023-07-28T07:31:35;18.80;99.90
7445;DHT22;3764;48.126;11.594;2023-07-28T07:34:02;18.80;99.90
7445;DHT22;3764;48.126;11.594;2023-07-28T07:36:30;18.90;99.90
7445;DHT22;3764;48.126;11.594;2023-07-28T07:38:57;18.90;99.90
7445;DHT22;3764;48.126;11.594;2023-07-28T07:41:24;19.00;99.90
7445;DHT22;3764;48.126;11.594;2023-07-28T07:43:53;19.10;99.90
7445;DHT22;3764;48.126;11.594;2023-07-28T07:46:22;19.10;99.90
7445;DHT22;3764;48.126;11.594;2023-07-28T07:48:50;19.20;99.90
7445;DHT22;3764;48.126;11.594;2023-07-28T07:51:18;19.30;99.90
7445;DHT22;3764;48.126;11.594;2023-07-28T07:53:45;19.30;99.90
7445;DHT22;3764;48.126;11.594;2023-07-28T07:56:12;19.40;99.90
7445;DHT22;3764;48.126;11.594;2023-07-28T07:58:39;19.50;99.90
7445;DHT22;3764;48.126;11.594;2023-07-28T08:01:06;19.50;99.90
7445;DHT22;3764;48.126;11.594;2023-07-28T08:03:36;19.60;99.90
7445;DHT22;3764;48.126;11.594;2023-07-28T08:06:03;19.70;99.90
7445;DHT22;3764;48.126;11.594;2023-07-28T08:08:31;19.70;99.90
7445;DHT22;3764;48.126;11.594;2023-07-28T08:10:58;19.80;99.90
7445;DHT22;3764;48.126;11.594;2023-07-28T08:13:26;19.90;99.90
7445;DHT22;3764;48.126;11.594;2023-07-28T08:15:54;19.90;99.90
7445;DHT22;3764;48.126;11.594;2023-07-28T08:18:21;20.00;99.90
7445;DHT22;3764;48.126;11.594;2023-07-28T08:20:50;20.10;99.90
7445;DHT22;3764;48.126;11.594;2023-07-28T08:23:19;20.10;99.90
7445;DHT22;3764;48.126;11.594;2023-07-28T08:25:46;20.20;99.90
7445;DHT22;3764;48.126;11.594;2023-07-28T08:28:13;20.30;99.90
7445;DHT22;3764;48.126;11.594;2023-07-28T08:30:40;20.40;99.90
7445;DHT22;3764;48.126;11.594;2023-07-28T08:33:07;20.40;99.90
7445;DHT22;3764;48.126;11.594;2023-07-28T08:35:35;20.50;99.90
7445;DHT22;3764;48.126;11.594;2023-07-28T08:38:03;20.50;99.90
7445;DHT22;3764;48.126;11.594;2023-07-28T08:40:30;20.50;99.90
7445;DHT22;3764;48.126;11.594;2023-07-28T08:42:57;20.50;99.90
7445;DHT22;3764;48.126;11.594;2023-07-28T08:45:24;20.60;99.90
7445;DHT22;3764;48.126;11.594;2023-07-28T08:47:52;20.60;99.90
7445;DHT22;3764;48.126;11.594;2023-07-28T08:50:19;20.70;99.90
7445;DHT22;3764;48.126;11.594;2023-07-28T08:52:46;20.70;99.90
7445;DHT22;3764;48.126;11.594;2023-07-28T08:55:16;20.70;99.90
7445;DHT22;3764;48.126;11.594;2023-07-28T08:57:43;20.80;99.90
7445;DHT22;3764;48.126;11.594;2023-07-28T09:00:11;20.80;99.90
7445;DHT22;3764;48.126;11.594;2023-07-28T09:02:40;20.90;99.90
7445;DHT22;3764;48.126;11.594;2023-07-28T09:05:17;21.00;99.90
7445;DHT22;3764;48.126;11.594;2023-07-28T09:07:44;21.20;99.90
7445;DHT22;3764;48.126;11.594;2023-07-28T09:10:11;21.30;99.90
7445;DHT22;3764;48.126;11.594;2023-07-28T09:12:46;21.30;99.90
7445;DHT22;3764;48.126;11.594;2023-07-28T09:15:14;21.40;99.90
7445;DHT22;3764;48.126;11.594;2023-07-28T09:17:43;21.40;99.90
7445;DHT22;3764;48.126;11.594;2023-07-28T09:20:13;21.40;99.90
7445;DHT22;3764;48.126;11.594;2023-07-28T09:22:43;21.40;99.90
7445;DHT22;3764;48.126;11.594;2023-07-28T09:25:14;21.40;99.90
7445;DHT22;3764;48.126;11.594;2023-07-28T09:27:50;21.30;99.90
7445;DHT22;3764;48.126;11.594;2023-07-28T09:30:18;21.30;99.90
7445;DHT22;3764;48.126;11.594;2023-07-28T09:32:47;21.30;99.90
7445;DHT22;3764;48.126;11.594;2023-07-28T09:35:15;21.30;99.90
7445;DHT22;3764;48.126;11.594;2023-07-28T09:37:44;21.30;99.90
7445;DHT22;3764;48.126;11.594;2023-07-28T09:40:12;21.30;99.90
7445;DHT22;3764;48.126;11.594;2023-07-28T09:42:40;21.30;99.90
7445;DHT22;3764;48.126;11.594;2023-07-28T09:45:10;21.30;99.90
7445;DHT22;3764;48.126;11.594;2023-07-28T09:47:37;21.30;99.90
7445;DHT22;3764;48.126;11.594;2023-07-28T09:50:07;21.40;99.90
7445;DHT22;3764;48.126;11.594;2023-07-28T09:52:38;21.40;99.90
7445;DHT22;3764;48.126;11.594;2023-07-28T09:55:10;21.30;99.90
7445;DHT22;3764;48.126;11.594;2023-07-28T09:57:44;21.30;99.90
7445;DHT22;3764;48.126;11.594;2023-07-28T10:00:14;21.40;99.90
7445;DHT22;3764;48.126;11.594;2023-07-28T10:02:42;21.30;99.90
7445;DHT22;3764;48.126;11.594;2023-07-28T10:05:09;21.40;99.90
7445;DHT22;3764;48.126;11.594;2023-07-28T10:07:39;21.40;99.90
7445;DHT22;3764;48.126;11.594;2023-07-28T10:10:08;21.40;99.90
7445;DHT22;3764;48.126;11.594;2023-07-28T10:12:49;21.50;99.90
7445;DHT22;3764;48.126;11.594;2023-07-28T10:15:20;21.50;99.90
7445;DHT22;3764;48.126;11.594;2023-07-28T10:17:49;21.50;99.90
7445;DHT22;3764;48.126;11.594;2023-07-28T10:20:35;21.50;99.90
7445;DHT22;3764;48.126;11.594;2023-07-28T10:23:11;21.60;99.90
7445;DHT22;3764;48.126;11.594;2023-07-28T10:25:40;21.60;99.90
7445;DHT22;3764;48.126;11.594;2023-07-28T10:28:26;21.60;99.90
7445;DHT22;3764;48.126;11.594;2023-07-28T10:30:56;21.60;99.90
7445;DHT22;3764;48.126;11.594;2023-07-28T10:33:32;21.60;99.90
7445;DHT22;3764;48.126;11.594;2023-07-28T10:36:11;21.70;99.90
7445;DHT22;3764;48.126;11.594;2023-07-28T10:38:39;21.70;99.90
7445;DHT22;3764;48.126;11.594;2023-07-28T10:41:08;21.80;99.90
7445;DHT22;3764;48.126;11.594;2023-07-28T10:43:34;21.80;99.90
7445;DHT22;3764;48.126;11.594;2023-07-28T10:46:04;21.80;99.90
7445;DHT22;3764;48.126;11.594;2023-07-28T10:48:31;21.80;99.90
7445;DHT22;3764;48.126;11.594;2023-07-28T10:50:59;21.70;99.90
7445;DHT22;3764;48.126;11.594;2023-07-28T10:53:26;21.70;99.90
7445;DHT22;3764;48.126;11.594;2023-07-28T10:55:53;21.70;99.90
7445;DHT22;3764;48.126;11.594;2023-07-28T10:58:20;21.70;99.90
7445;DHT22;3764;48.126;11.594;2023-07-28T11:00:50;21.70;99.90
7445;DHT22;3764;48.126;11.594;2023-07-28T11:03:19;21.70;99.90
7445;DHT22;3764;48.126;11.594;2023-07-28T11:05:48;21.70;99.90
7445;DHT22;3764;48.126;11.594;2023-07-28T11:08:16;21.80;99.90
7445;DHT22;3764;48.126;11.594;2023-07-28T11:10:44;21.90;99.90
7445;DHT22;3764;48.126;11.594;2023-07-28T11:13:11;22.00;99.90
7445;DHT22;3764;48.126;11.594;2023-07-28T11:15:38;21.90;99.90
7445;DHT22;3764;48.126;11.594;2023-07-28T11:18:06;22.00;99.90
7445;DHT22;3764;48.126;11.594;2023-07-28T11:20:34;22.00;99.90
7445;DHT22;3764;48.126;11.594;2023-07-28T11:23:03;22.00;99.90
7445;DHT22;3764;48.126;11.594;2023-07-28T11:25:32;22.00;99.90
7445;DHT22;3764;48.126;11.594;2023-07-28T11:28:01;22.10;99.90
7445;DHT22;3764;48.126;11.594;2023-07-28T11:30:29;22.10;99.90
7445;DHT22;3764;48.126;11.594;2023-07-28T11:32:56;22.10;99.90
7445;DHT22;3764;48.126;11.594;2023-07-28T11:35:23;22.10;99.90
7445;DHT22;3764;48.126;11.594;2023-07-28T11:37:52;22.20;99.90
7445;DHT22;3764;48.126;11.594;2023-07-28T11:40:21;22.20;99.90
7445;DHT22;3764;48.126;11.594;2023-07-28T11:42:49;22.20;99.90
7445;DHT22;3764;48.126;11.594;2023-07-28T11:45:19;22.20;99.90
7445;DHT22;3764;48.126;11.594;2023-07-28T11:47:58;22.20;99.90
7445;DHT22;3764;48.126;11.594;2023-07-28T11:50:26;22.20;99.90
7445;DHT22;3764;48.126;11.594;2023-07-28T11:52:56;22.20;99.90
7445;DHT22;3764;48.126;11.594;2023-07-28T11:55:24;22.30;99.90
7445;DHT22;3764;48.126;11.594;2023-07-28T11:57:52;22.30;99.90
7445;DHT22;3764;48.126;11.594;2023-07-28T12:00:24;22.30;99.90
7445;DHT22;3764;48.126;11.594;2023-07-28T12:03:03;22.30;99.90
7445;DHT22;3764;48.126;11.594;2023-07-28T12:05:31;22.30;99.90
7445;DHT22;3764;48.126;11.594;2023-07-28T12:08:01;22.30;99.90
7445;DHT22;3764;48.126;11.594;2023-07-28T12:10:28;22.30;99.90
7445;DHT22;3764;48.126;11.594;2023-07-28T12:12:57;22.40;99.90
7445;DHT22;3764;48.126;11.594;2023-07-28T12:15:30;22.40;99.90
7445;DHT22;3764;48.126;11.594;2023-07-28T12:18:19;22.50;99.90
7445;DHT22;3764;48.126;11.594;2023-07-28T12:20:47;22.50;99.90
7445;DHT22;3764;48.126;11.594;2023-07-28T12:23:18;22.50;99.90
7445;DHT22;3764;48.126;11.594;2023-07-28T12:25:45;22.50;99.90
7445;DHT22;3764;48.126;11.594;2023-07-28T12:28:12;22.60;99.90
7445;DHT22;3764;48.126;11.594;2023-07-28T12:30:39;22.60;99.90
7445;DHT22;3764;48.126;11.594;2023-07-28T12:33:07;22.60;99.90
7445;DHT22;3764;48.126;11.594;2023-07-28T12:35:34;22.70;99.90
7445;DHT22;3764;48.126;11.594;2023-07-28T12:38:02;22.70;99.90
7445;DHT22;3764;48.126;11.594;2023-07-28T12:40:33;22.70;99.90
7445;DHT22;3764;48.126;11.594;2023-07-28T12:43:01;22.70;99.90
7445;DHT22;3764;48.126;11.594;2023-07-28T12:45:28;22.70;99.90
7445;DHT22;3764;48.126;11.594;2023-07-28T12:47:56;22.70;99.90
7445;DHT22;3764;48.126;11.594;2023-07-28T12:50:24;22.70;99.90
7445;DHT22;3764;48.126;11.594;2023-07-28T12:52:51;22.70;99.90
7445;DHT22;3764;48.126;11.594;2023-07-28T12:55:18;22.80;99.90
7445;DHT22;3764;48.126;11.594;2023-07-28T12:57:47;22.80;99.90
7445;DHT22;3764;48.126;11.594;2023-07-28T13:00:15;22.90;99.90
7445;DHT22;3764;48.126;11.594;2023-07-28T13:02:44;23.00;99.90
7445;DHT22;3764;48.126;11.594;2023-07-28T13:05:12;23.00;99.90
7445;DHT22;3764;48.126;11.594;2023-07-28T13:07:41;23.10;99.90
7445;DHT22;3764;48.126;11.594;2023-07-28T13:10:10;23.10;99.90
7445;DHT22;3764;48.126;11.594;2023-07-28T13:12:37;23.10;99.90
7445;DHT22;3764;48.126;11.594;2023-07-28T13:15:07;23.10;99.90
7445;DHT22;3764;48.126;11.594;2023-07-28T13:17:34;23.10;99.90
7445;DHT22;3764;48.126;11.594;2023-07-28T13:20:01;23.10;99.90
7445;DHT22;3764;48.126;11.594;2023-07-28T13:22:28;23.10;99.90
7445;DHT22;3764;48.126;11.594;2023-07-28T13:24:55;23.10;99.90
7445;DHT22;3764;48.126;11.594;2023-07-28T13:27:22;23.10;99.90
7445;DHT22;3764;48.126;11.594;2023-07-28T13:29:50;23.10;99.90
7445;DHT22;3764;48.126;11.594;2023-07-28T13:32:23;23.10;99.90
7445;DHT22;3764;48.126;11.594;2023-07-28T13:34:50;23.10;99.90
7445;DHT22;3764;48.126;11.594;2023-07-28T13:37:18;23.10;99.90
7445;DHT22;3764;48.126;11.594;2023-07-28T13:39:45;23.10;99.90
7445;DHT22;3764;48.126;11.594;2023-07-28T13:42:12;23.10;99.90
7445;DHT22;3764;48.126;11.594;2023-07-28T13:44:41;23.10;99.90
7445;DHT22;3764;48.126;11.594;2023-07-28T13:47:09;23.10;99.90
7445;DHT22;3764;48.126;11.594;2023-07-28T13:49:37;23.00;99.90
7445;DHT22;3764;48.126;11.594;2023-07-28T13:52:05;23.00;99.90
7445;DHT22;3764;48.126;11.594;2023-07-28T13:54:33;23.00;99.90
7445;DHT22;3764;48.126;11.594;2023-07-28T13:57:00;23.00;99.90
7445;DHT22;3764;48.126;11.594;2023-07-28T13:59:27;22.90;99.90
7445;DHT22;3764;48.126;11.594;2023-07-28T14:01:54;23.00;99.90
7445;DHT22;3764;48.126;11.594;2023-07-28T14:04:23;22.90;99.90
7445;DHT22;3764;48.126;11.594;2023-07-28T14:06:52;22.90;99.90
7445;DHT22;3764;48.126;11.594;2023-07-28T14:09:19;22.90;99.90
7445;DHT22;3764;48.126;11.594;2023-07-28T14:11:46;22.80;99.90
7445;DHT22;3764;48.126;11.594;2023-07-28T14:14:13;22.80;99.90
7445;DHT22;3764;48.126;11.594;2023-07-28T14:16:40;22.80;99.90
7445;DHT22;3764;48.126;11.594;2023-07-28T14:19:08;22.80;99.90
7445;DHT22;3764;48.126;11.594;2023-07-28T14:21:35;22.70;99.90
7445;DHT22;3764;48.126;11.594;2023-07-28T14:24:05;22.70;99.90
7445;DHT22;3764;48.126;11.594;2023-07-28T14:26:32;22.50;99.90
7445;DHT22;3764;48.126;11.594;2023-07-28T14:28:59;22.30;99.90
7445;DHT22;3764;48.126;11.594;2023-07-28T14:31:26;22.10;99.90
7445;DHT22;3764;48.126;11.594;2023-07-28T14:33:54;21.90;99.90
7445;DHT22;3764;48.126;11.594;2023-07-28T14:36:21;21.80;99.90
7445;DHT22;3764;48.126;11.594;2023-07-28T14:38:48;21.80;99.90
7445;DHT22;3764;48.126;11.594;2023-07-28T14:41:16;21.70;99.90
7445;DHT22;3764;48.126;11.594;2023-07-28T14:43:43;21.70;99.90
7445;DHT22;3764;48.126;11.594;2023-07-28T14:46:11;21.60;99.90
7445;DHT22;3764;48.126;11.594;2023-07-28T14:48:41;21.60;99.90
7445;DHT22;3764;48.126;11.594;2023-07-28T14:51:09;21.60;99.90
7445;DHT22;3764;48.126;11.594;2023-07-28T14:53:37;21.60;99.90
7445;DHT22;3764;48.126;11.594;2023-07-28T14:56:06;21.60;99.90
7445;DHT22;3764;48.126;11.594;2023-07-28T14:58:36;21.60;99.90
7445;DHT22;3764;48.126;11.594;2023-07-28T15:01:03;21.60;99.90
7445;DHT22;3764;48.126;11.594;2023-07-28T15:03:32;21.60;99.90
7445;DHT22;3764;48.126;11.594;2023-07-28T15:05:59;21.60;99.90
7445;DHT22;3764;48.126;11.594;2023-07-28T15:08:27;21.60;99.90
7445;DHT22;3764;48.126;11.594;2023-07-28T15:10:55;21.60;99.90
7445;DHT22;3764;48.126;11.594;2023-07-28T15:13:22;21.60;99.90
7445;DHT22;3764;48.126;11.594;2023-07-28T15:15:51;21.70;99.90
7445;DHT22;3764;48.126;11.594;2023-07-28T15:18:18;21.70;99.90
7445;DHT22;3764;48.126;11.594;2023-07-28T15:20:45;21.80;99.90
7445;DHT22;3764;48.126;11.594;2023-07-28T15:23:13;21.70;99.90
7445;DHT22;3764;48.126;11.594;2023-07-28T15:25:40;21.80;99.90
7445;DHT22;3764;48.126;11.594;2023-07-28T15:28:10;21.80;99.90
7445;DHT22;3764;48.126;11.594;2023-07-28T15:37:13;21.90;99.90
7445;DHT22;3764;48.126;11.594;2023-07-28T15:39:40;21.90;99.90
7445;DHT22;3764;48.126;11.594;2023-07-28T15:42:07;22.00;99.90
7445;DHT22;3764;48.126;11.594;2023-07-28T15:44:34;21.90;99.90
7445;DHT22;3764;48.126;11.594;2023-07-28T15:47:01;22.00;99.90
7445;DHT22;3764;48.126;11.594;2023-07-28T15:49:28;22.10;99.90
7445;DHT22;3764;48.126;11.594;2023-07-28T15:51:55;22.20;99.90
7445;DHT22;3764;48.126;11.594;2023-07-28T15:54:25;22.30;99.90
7445;DHT22;3764;48.126;11.594;2023-07-28T15:56:53;22.30;99.90
7445;DHT22;3764;48.126;11.594;2023-07-28T15:59:20;22.40;99.90